OTBH/IUD METAR and TAF weather

Enter ICAO airport designator
Station Type Date Time Source
OTBH METAR 2020/11/28 19:56 UTC NOAA

OTBH 281956Z 11004KT 9999 FEW130 23/18 A3003 RMK AO2A SLP170 T02320178 $


Station Type Date Time Source
OTBH Decoded METAR 2020/11/28 19:56 UTC NOAA

Station name not available
Nov 28, 2020 - 02:56 PM EST / 2020.11.28 1956 UTC
Wind: from the ESE (110 degrees) at 5 MPH (4 KT):0
Visibility: greater than 7 mile(s):0
Sky conditions: mostly clear
Temperature: 73.8 F (23.2 C)
Dew Point: 64.0 F (17.8 C)
Relative Humidity: 71%
Pressure (altimeter): 30.03 in. Hg (1016 hPa)
ob: OTBH 281956Z 11004KT 9999 FEW130 23/18 A3003 RMK AO2A SLP170 T02320178
cycle: 20

Station Type Date Time Source
OTBH TAF 2020/11/28 16:57 UTC NOAA

TAF OTBH 281600Z 2816/2922 08009KT 9999 FEW070 SCT140 QNH3000INS
BECMG 2821/2822 14006KT 9999 FEW120 QNH3001INS
BECMG 2904/2905 15012KT 9999 FEW070 SCT120 QNH3000INS
BECMG 2909/2910 19012KT 9999 SCT100 BKN150 QNH2998INS
BECMG 2913/2914 13009KT 9999 FEW110 SCT140 QNH2995INS
BECMG 2920/2921 08009KT 9999 FEW090 SCT130 QNH2997INS TX30/2910Z TN23/2901Z

Example: see airport list